sensor_id;sensor_type;location;lat;lon;timestamp;P1;durP1;ratioP1;P2;durP2;ratioP2
75704;SDS011;70013;44.726;37.760;2023-05-16T00:00:18;13.65;;;8.35;;
75704;SDS011;70013;44.726;37.760;2023-05-16T00:01:20;10.07;;;6.78;;
75704;SDS011;70013;44.726;37.760;2023-05-16T00:02:21;13.85;;;6.70;;
75704;SDS011;70013;44.726;37.760;2023-05-16T00:03:23;11.93;;;7.20;;
75704;SDS011;70013;44.726;37.760;2023-05-16T00:04:24;11.10;;;7.35;;
75704;SDS011;70013;44.726;37.760;2023-05-16T00:06:27;11.07;;;6.78;;
75704;SDS011;70013;44.726;37.760;2023-05-16T00:07:29;14.10;;;7.20;;
75704;SDS011;70013;44.726;37.760;2023-05-16T00:08:31;11.57;;;6.57;;
75704;SDS011;70013;44.726;37.760;2023-05-16T00:09:32;14.20;;;6.55;;
75704;SDS011;70013;44.726;37.760;2023-05-16T00:10:33;11.07;;;6.68;;
75704;SDS011;70013;44.726;37.760;2023-05-16T00:12:36;15.55;;;6.40;;
75704;SDS011;70013;44.726;37.760;2023-05-16T00:13:39;21.05;;;6.47;;
75704;SDS011;70013;44.726;37.760;2023-05-16T00:14:42;10.82;;;5.88;;
75704;SDS011;70013;44.726;37.760;2023-05-16T00:16:44;13.18;;;6.05;;
75704;SDS011;70013;44.726;37.760;2023-05-16T00:17:47;10.30;;;5.90;;
75704;SDS011;70013;44.726;37.760;2023-05-16T00:18:49;15.95;;;5.60;;
75704;SDS011;70013;44.726;37.760;2023-05-16T00:19:50;9.05;;;5.35;;
75704;SDS011;70013;44.726;37.760;2023-05-16T00:20:58;13.90;;;6.18;;
75704;SDS011;70013;44.726;37.760;2023-05-16T00:21:59;11.60;;;5.22;;
75704;SDS011;70013;44.726;37.760;2023-05-16T00:23:06;15.30;;;5.55;;
75704;SDS011;70013;44.726;37.760;2023-05-16T00:24:07;10.45;;;5.43;;
75704;SDS011;70013;44.726;37.760;2023-05-16T00:26:10;11.63;;;5.43;;
75704;SDS011;70013;44.726;37.760;2023-05-16T00:27:15;9.60;;;5.45;;
75704;SDS011;70013;44.726;37.760;2023-05-16T00:28:16;13.27;;;5.55;;
75704;SDS011;70013;44.726;37.760;2023-05-16T00:29:18;11.43;;;5.88;;
75704;SDS011;70013;44.726;37.760;2023-05-16T00:30:19;14.50;;;6.10;;
75704;SDS011;70013;44.726;37.760;2023-05-16T00:31:21;11.15;;;5.68;;
75704;SDS011;70013;44.726;37.760;2023-05-16T00:32:22;11.57;;;6.30;;
75704;SDS011;70013;44.726;37.760;2023-05-16T00:33:23;13.90;;;5.25;;
75704;SDS011;70013;44.726;37.760;2023-05-16T00:34:25;8.60;;;4.95;;
75704;SDS011;70013;44.726;37.760;2023-05-16T00:35:27;15.10;;;5.63;;
75704;SDS011;70013;44.726;37.760;2023-05-16T00:36:28;11.68;;;5.47;;
75704;SDS011;70013;44.726;37.760;2023-05-16T00:37:31;16.15;;;6.40;;
75704;SDS011;70013;44.726;37.760;2023-05-16T00:38:33;20.23;;;6.60;;
75704;SDS011;70013;44.726;37.760;2023-05-16T00:39:34;14.73;;;5.60;;
75704;SDS011;70013;44.726;37.760;2023-05-16T00:40:36;15.00;;;5.30;;
75704;SDS011;70013;44.726;37.760;2023-05-16T00:41:38;10.95;;;5.85;;
75704;SDS011;70013;44.726;37.760;2023-05-16T00:42:39;11.05;;;5.18;;
75704;SDS011;70013;44.726;37.760;2023-05-16T00:43:41;14.98;;;5.65;;
75704;SDS011;70013;44.726;37.760;2023-05-16T00:44:42;15.05;;;6.10;;
75704;SDS011;70013;44.726;37.760;2023-05-16T00:45:44;13.90;;;5.72;;
75704;SDS011;70013;44.726;37.760;2023-05-16T00:46:45;13.48;;;5.82;;
75704;SDS011;70013;44.726;37.760;2023-05-16T00:48:48;10.10;;;5.25;;
75704;SDS011;70013;44.726;37.760;2023-05-16T00:50:51;11.15;;;4.93;;
75704;SDS011;70013;44.726;37.760;2023-05-16T00:51:53;13.55;;;4.55;;
75704;SDS011;70013;44.726;37.760;2023-05-16T00:52:57;8.07;;;4.28;;
75704;SDS011;70013;44.726;37.760;2023-05-16T00:53:58;14.55;;;4.85;;
75704;SDS011;70013;44.726;37.760;2023-05-16T00:55:00;8.38;;;4.57;;
75704;SDS011;70013;44.726;37.760;2023-05-16T00:56:04;9.50;;;4.60;;
75704;SDS011;70013;44.726;37.760;2023-05-16T00:57:06;10.60;;;4.60;;
75704;SDS011;70013;44.726;37.760;2023-05-16T00:59:09;9.52;;;4.25;;
75704;SDS011;70013;44.726;37.760;2023-05-16T01:00:11;13.55;;;4.47;;
75704;SDS011;70013;44.726;37.760;2023-05-16T01:01:15;9.10;;;4.40;;
75704;SDS011;70013;44.726;37.760;2023-05-16T01:02:16;12.25;;;4.78;;
75704;SDS011;70013;44.726;37.760;2023-05-16T01:03:19;10.45;;;4.63;;
75704;SDS011;70013;44.726;37.760;2023-05-16T01:04:21;7.90;;;4.45;;
75704;SDS011;70013;44.726;37.760;2023-05-16T01:06:23;10.07;;;4.60;;
75704;SDS011;70013;44.726;37.760;2023-05-16T01:07:25;9.25;;;5.00;;
75704;SDS011;70013;44.726;37.760;2023-05-16T01:08:26;12.13;;;4.75;;
75704;SDS011;70013;44.726;37.760;2023-05-16T01:09:27;10.55;;;5.00;;
75704;SDS011;70013;44.726;37.760;2023-05-16T01:10:34;17.65;;;5.22;;
75704;SDS011;70013;44.726;37.760;2023-05-16T01:14:38;10.43;;;4.63;;
75704;SDS011;70013;44.726;37.760;2023-05-16T01:24:31;6.75;;;4.85;;
75704;SDS011;70013;44.726;37.760;2023-05-16T01:26:45;10.40;;;5.63;;
75704;SDS011;70013;44.726;37.760;2023-05-16T01:27:46;13.85;;;5.45;;
75704;SDS011;70013;44.726;37.760;2023-05-16T01:28:49;12.50;;;5.72;;
75704;SDS011;70013;44.726;37.760;2023-05-16T01:29:55;12.23;;;5.40;;
75704;SDS011;70013;44.726;37.760;2023-05-16T01:30:57;12.50;;;6.22;;
75704;SDS011;70013;44.726;37.760;2023-05-16T01:31:58;9.55;;;5.25;;
75704;SDS011;70013;44.726;37.760;2023-05-16T01:34:01;11.48;;;5.40;;
75704;SDS011;70013;44.726;37.760;2023-05-16T01:35:04;12.30;;;5.50;;
75704;SDS011;70013;44.726;37.760;2023-05-16T01:38:15;9.85;;;5.43;;
75704;SDS011;70013;44.726;37.760;2023-05-16T01:39:21;11.38;;;5.20;;
75704;SDS011;70013;44.726;37.760;2023-05-16T01:42:54;8.85;;;4.88;;
75704;SDS011;70013;44.726;37.760;2023-05-16T01:44:01;10.45;;;5.03;;
75704;SDS011;70013;44.726;37.760;2023-05-16T01:45:15;9.80;;;5.18;;
75704;SDS011;70013;44.726;37.760;2023-05-16T01:46:24;8.63;;;4.88;;
75704;SDS011;70013;44.726;37.760;2023-05-16T01:47:29;12.93;;;5.30;;
75704;SDS011;70013;44.726;37.760;2023-05-16T01:48:34;10.77;;;5.18;;
75704;SDS011;70013;44.726;37.760;2023-05-16T01:51:20;8.13;;;5.03;;
75704;SDS011;70013;44.726;37.760;2023-05-16T01:52:26;10.57;;;4.85;;
75704;SDS011;70013;44.726;37.760;2023-05-16T01:53:32;9.68;;;4.93;;
75704;SDS011;70013;44.726;37.760;2023-05-16T01:54:42;11.60;;;5.13;;
75704;SDS011;70013;44.726;37.760;2023-05-16T01:56:08;8.38;;;5.00;;
75704;SDS011;70013;44.726;37.760;2023-05-16T01:57:10;10.82;;;5.43;;
75704;SDS011;70013;44.726;37.760;2023-05-16T01:58:14;17.83;;;6.22;;
75704;SDS011;70013;44.726;37.760;2023-05-16T01:59:18;10.90;;;5.60;;
75704;SDS011;70013;44.726;37.760;2023-05-16T02:00:22;18.15;;;6.35;;
75704;SDS011;70013;44.726;37.760;2023-05-16T02:01:23;12.63;;;6.00;;
75704;SDS011;70013;44.726;37.760;2023-05-16T02:02:25;15.80;;;5.82;;
75704;SDS011;70013;44.726;37.760;2023-05-16T02:03:26;10.70;;;5.97;;
75704;SDS011;70013;44.726;37.760;2023-05-16T02:04:28;14.38;;;6.38;;
75704;SDS011;70013;44.726;37.760;2023-05-16T02:05:29;14.25;;;6.00;;
75704;SDS011;70013;44.726;37.760;2023-05-16T02:06:30;10.40;;;5.60;;
75704;SDS011;70013;44.726;37.760;2023-05-16T02:07:32;20.95;;;5.80;;
75704;SDS011;70013;44.726;37.760;2023-05-16T02:08:34;12.52;;;5.80;;
75704;SDS011;70013;44.726;37.760;2023-05-16T02:09:35;10.05;;;5.30;;
75704;SDS011;70013;44.726;37.760;2023-05-16T02:11:39;11.70;;;5.70;;
75704;SDS011;70013;44.726;37.760;2023-05-16T02:12:41;10.90;;;5.10;;
75704;SDS011;70013;44.726;37.760;2023-05-16T02:13:42;11.02;;;5.68;;
75704;SDS011;70013;44.726;37.760;2023-05-16T02:14:44;15.63;;;5.90;;
75704;SDS011;70013;44.726;37.760;2023-05-16T02:15:46;12.63;;;5.57;;
75704;SDS011;70013;44.726;37.760;2023-05-16T02:16:47;14.38;;;5.93;;
75704;SDS011;70013;44.726;37.760;2023-05-16T02:18:50;12.25;;;5.65;;
75704;SDS011;70013;44.726;37.760;2023-05-16T02:19:51;12.07;;;5.38;;
75704;SDS011;70013;44.726;37.760;2023-05-16T02:20:53;15.38;;;5.43;;
75704;SDS011;70013;44.726;37.760;2023-05-16T02:23:02;15.95;;;5.30;;
75704;SDS011;70013;44.726;37.760;2023-05-16T02:24:03;12.35;;;5.20;;
75704;SDS011;70013;44.726;37.760;2023-05-16T02:25:05;14.80;;;5.45;;
75704;SDS011;70013;44.726;37.760;2023-05-16T02:26:07;11.25;;;5.13;;
75704;SDS011;70013;44.726;37.760;2023-05-16T02:28:09;20.25;;;5.55;;
75704;SDS011;70013;44.726;37.760;2023-05-16T02:29:11;16.10;;;5.28;;
75704;SDS011;70013;44.726;37.760;2023-05-16T02:30:12;18.15;;;6.30;;
75704;SDS011;70013;44.726;37.760;2023-05-16T02:31:35;13.40;;;5.10;;
75704;SDS011;70013;44.726;37.760;2023-05-16T02:32:36;9.45;;;5.60;;
75704;SDS011;70013;44.726;37.760;2023-05-16T02:33:38;12.32;;;5.15;;
75704;SDS011;70013;44.726;37.760;2023-05-16T02:34:42;13.23;;;5.45;;
75704;SDS011;70013;44.726;37.760;2023-05-16T02:35:44;13.02;;;5.43;;
75704;SDS011;70013;44.726;37.760;2023-05-16T02:36:45;25.65;;;6.55;;
75704;SDS011;70013;44.726;37.760;2023-05-16T02:37:46;14.95;;;5.55;;
75704;SDS011;70013;44.726;37.760;2023-05-16T02:38:48;14.77;;;5.75;;
75704;SDS011;70013;44.726;37.760;2023-05-16T02:39:49;13.40;;;5.53;;
75704;SDS011;70013;44.726;37.760;2023-05-16T02:40:50;18.52;;;5.82;;
75704;SDS011;70013;44.726;37.760;2023-05-16T02:41:52;10.98;;;5.53;;
75704;SDS011;70013;44.726;37.760;2023-05-16T02:42:53;14.55;;;5.80;;
75704;SDS011;70013;44.726;37.760;2023-05-16T02:43:54;17.67;;;6.10;;
75704;SDS011;70013;44.726;37.760;2023-05-16T02:44:56;11.18;;;5.38;;
75704;SDS011;70013;44.726;37.760;2023-05-16T02:45:58;15.05;;;5.88;;
75704;SDS011;70013;44.726;37.760;2023-05-16T02:46:59;15.38;;;5.50;;
75704;SDS011;70013;44.726;37.760;2023-05-16T02:49:02;13.82;;;5.45;;
75704;SDS011;70013;44.726;37.760;2023-05-16T02:50:03;13.10;;;5.28;;
75704;SDS011;70013;44.726;37.760;2023-05-16T02:51:08;12.52;;;5.18;;
75704;SDS011;70013;44.726;37.760;2023-05-16T02:52:09;16.52;;;5.50;;
75704;SDS011;70013;44.726;37.760;2023-05-16T02:53:11;15.88;;;4.70;;
75704;SDS011;70013;44.726;37.760;2023-05-16T02:54:13;10.85;;;4.45;;
75704;SDS011;70013;44.726;37.760;2023-05-16T02:55:15;8.52;;;4.43;;
75704;SDS011;70013;44.726;37.760;2023-05-16T02:56:17;12.55;;;4.38;;
75704;SDS011;70013;44.726;37.760;2023-05-16T02:57:20;10.18;;;4.90;;
75704;SDS011;70013;44.726;37.760;2023-05-16T02:58:21;17.83;;;5.35;;
75704;SDS011;70013;44.726;37.760;2023-05-16T02:59:22;13.63;;;4.50;;
75704;SDS011;70013;44.726;37.760;2023-05-16T03:00:24;19.85;;;5.30;;
75704;SDS011;70013;44.726;37.760;2023-05-16T03:01:25;12.75;;;4.20;;
75704;SDS011;70013;44.726;37.760;2023-05-16T03:03:28;12.38;;;4.43;;
75704;SDS011;70013;44.726;37.760;2023-05-16T03:05:31;12.90;;;4.40;;
75704;SDS011;70013;44.726;37.760;2023-05-16T03:06:32;12.07;;;4.63;;
75704;SDS011;70013;44.726;37.760;2023-05-16T03:08:35;13.90;;;4.20;;
75704;SDS011;70013;44.726;37.760;2023-05-16T03:09:36;15.05;;;4.30;;
75704;SDS011;70013;44.726;37.760;2023-05-16T03:10:38;17.02;;;4.30;;
75704;SDS011;70013;44.726;37.760;2023-05-16T03:11:40;20.83;;;4.47;;
75704;SDS011;70013;44.726;37.760;2023-05-16T03:13:43;22.50;;;4.70;;
75704;SDS011;70013;44.726;37.760;2023-05-16T03:14:44;23.67;;;4.57;;
75704;SDS011;70013;44.726;37.760;2023-05-16T03:16:47;14.63;;;4.57;;
75704;SDS011;70013;44.726;37.760;2023-05-16T03:17:48;14.02;;;4.15;;
75704;SDS011;70013;44.726;37.760;2023-05-16T03:19:51;10.05;;;3.70;;
75704;SDS011;70013;44.726;37.760;2023-05-16T03:20:53;12.25;;;3.47;;
75704;SDS011;70013;44.726;37.760;2023-05-16T03:21:57;13.90;;;3.60;;
75704;SDS011;70013;44.726;37.760;2023-05-16T03:23:04;10.68;;;3.53;;
75704;SDS011;70013;44.726;37.760;2023-05-16T03:24:10;13.63;;;3.83;;
75704;SDS011;70013;44.726;37.760;2023-05-16T03:25:11;14.82;;;3.80;;
75704;SDS011;70013;44.726;37.760;2023-05-16T03:26:15;11.95;;;3.75;;
75704;SDS011;70013;44.726;37.760;2023-05-16T03:28:17;11.75;;;3.72;;
75704;SDS011;70013;44.726;37.760;2023-05-16T03:29:19;8.95;;;3.40;;
75704;SDS011;70013;44.726;37.760;2023-05-16T03:31:21;13.85;;;4.15;;
75704;SDS011;70013;44.726;37.760;2023-05-16T03:32:23;17.92;;;3.97;;
75704;SDS011;70013;44.726;37.760;2023-05-16T03:33:24;27.27;;;4.18;;
75704;SDS011;70013;44.726;37.760;2023-05-16T03:35:28;23.13;;;4.60;;
75704;SDS011;70013;44.726;37.760;2023-05-16T03:36:34;17.15;;;3.83;;
75704;SDS011;70013;44.726;37.760;2023-05-16T03:37:36;14.50;;;4.30;;
75704;SDS011;70013;44.726;37.760;2023-05-16T03:38:43;14.10;;;3.88;;
75704;SDS011;70013;44.726;37.760;2023-05-16T03:39:45;20.35;;;4.22;;
75704;SDS011;70013;44.726;37.760;2023-05-16T03:40:46;18.58;;;3.97;;
75704;SDS011;70013;44.726;37.760;2023-05-16T03:41:48;12.52;;;3.70;;
75704;SDS011;70013;44.726;37.760;2023-05-16T03:43:50;14.02;;;3.28;;
75704;SDS011;70013;44.726;37.760;2023-05-16T03:44:52;12.50;;;3.40;;
75704;SDS011;70013;44.726;37.760;2023-05-16T03:45:53;13.30;;;4.32;;
75704;SDS011;70013;44.726;37.760;2023-05-16T03:46:55;24.63;;;10.23;;
75704;SDS011;70013;44.726;37.760;2023-05-16T03:48:58;26.15;;;7.85;;
75704;SDS011;70013;44.726;37.760;2023-05-16T03:50:00;30.80;;;14.63;;
75704;SDS011;70013;44.726;37.760;2023-05-16T03:51:01;32.90;;;13.60;;
75704;SDS011;70013;44.726;37.760;2023-05-16T03:52:03;22.17;;;9.18;;
75704;SDS011;70013;44.726;37.760;2023-05-16T03:53:05;22.55;;;6.57;;
75704;SDS011;70013;44.726;37.760;2023-05-16T03:54:06;18.10;;;5.60;;
75704;SDS011;70013;44.726;37.760;2023-05-16T03:56:09;11.80;;;4.15;;
75704;SDS011;70013;44.726;37.760;2023-05-16T03:57:10;14.32;;;4.30;;
75704;SDS011;70013;44.726;37.760;2023-05-16T03:59:13;17.05;;;4.13;;
75704;SDS011;70013;44.726;37.760;2023-05-16T04:00:15;16.45;;;3.10;;
75704;SDS011;70013;44.726;37.760;2023-05-16T04:01:16;7.20;;;2.78;;
75704;SDS011;70013;44.726;37.760;2023-05-16T04:03:19;11.55;;;2.83;;
75704;SDS011;70013;44.726;37.760;2023-05-16T04:04:27;10.75;;;2.95;;
75704;SDS011;70013;44.726;37.760;2023-05-16T04:05:29;11.48;;;3.30;;
75704;SDS011;70013;44.726;37.760;2023-05-16T04:06:30;16.45;;;3.28;;
75704;SDS011;70013;44.726;37.760;2023-05-16T04:07:32;11.63;;;3.58;;
75704;SDS011;70013;44.726;37.760;2023-05-16T04:08:34;12.15;;;3.35;;
75704;SDS011;70013;44.726;37.760;2023-05-16T04:09:35;14.48;;;3.70;;
75704;SDS011;70013;44.726;37.760;2023-05-16T04:10:36;14.85;;;3.67;;
75704;SDS011;70013;44.726;37.760;2023-05-16T04:12:39;12.93;;;3.72;;
75704;SDS011;70013;44.726;37.760;2023-05-16T04:13:41;8.95;;;3.33;;
75704;SDS011;70013;44.726;37.760;2023-05-16T04:15:43;11.88;;;3.78;;
75704;SDS011;70013;44.726;37.760;2023-05-16T04:16:45;12.20;;;3.53;;
75704;SDS011;70013;44.726;37.760;2023-05-16T04:17:47;18.83;;;3.60;;
75704;SDS011;70013;44.726;37.760;2023-05-16T04:18:48;17.58;;;3.45;;
75704;SDS011;70013;44.726;37.760;2023-05-16T04:19:49;18.20;;;4.00;;
75704;SDS011;70013;44.726;37.760;2023-05-16T04:21:52;14.98;;;6.43;;
75704;SDS011;70013;44.726;37.760;2023-05-16T04:22:59;20.50;;;3.97;;
75704;SDS011;70013;44.726;37.760;2023-05-16T04:24:01;16.92;;;4.05;;
75704;SDS011;70013;44.726;37.760;2023-05-16T04:25:02;11.52;;;3.72;;
75704;SDS011;70013;44.726;37.760;2023-05-16T04:26:04;10.38;;;3.50;;
75704;SDS011;70013;44.726;37.760;2023-05-16T04:27:05;17.88;;;6.53;;
75704;SDS011;70013;44.726;37.760;2023-05-16T04:28:10;23.77;;;8.10;;
75704;SDS011;70013;44.726;37.760;2023-05-16T04:29:11;30.95;;;11.65;;
75704;SDS011;70013;44.726;37.760;2023-05-16T04:30:14;31.35;;;15.55;;
75704;SDS011;70013;44.726;37.760;2023-05-16T04:31:15;49.00;;;26.10;;
75704;SDS011;70013;44.726;37.760;2023-05-16T04:33:19;28.58;;;12.30;;
75704;SDS011;70013;44.726;37.760;2023-05-16T04:36:24;17.48;;;5.85;;
75704;SDS011;70013;44.726;37.760;2023-05-16T04:37:26;22.42;;;6.75;;
75704;SDS011;70013;44.726;37.760;2023-05-16T04:38:27;13.45;;;4.97;;
75704;SDS011;70013;44.726;37.760;2023-05-16T04:40:29;19.05;;;5.45;;
75704;SDS011;70013;44.726;37.760;2023-05-16T04:41:31;26.33;;;4.85;;
75704;SDS011;70013;44.726;37.760;2023-05-16T04:42:33;14.43;;;4.25;;
75704;SDS011;70013;44.726;37.760;2023-05-16T04:43:35;14.23;;;3.72;;
75704;SDS011;70013;44.726;37.760;2023-05-16T04:44:36;16.55;;;4.60;;
75704;SDS011;70013;44.726;37.760;2023-05-16T04:46:39;19.00;;;4.30;;
75704;SDS011;70013;44.726;37.760;2023-05-16T04:47:41;18.25;;;4.00;;
75704;SDS011;70013;44.726;37.760;2023-05-16T04:48:42;20.77;;;4.30;;
75704;SDS011;70013;44.726;37.760;2023-05-16T04:49:43;11.48;;;2.63;;
75704;SDS011;70013;44.726;37.760;2023-05-16T04:52:48;18.88;;;4.82;;
75704;SDS011;70013;44.726;37.760;2023-05-16T04:53:49;24.17;;;9.10;;
75704;SDS011;70013;44.726;37.760;2023-05-16T04:54:51;61.10;;;29.38;;
75704;SDS011;70013;44.726;37.760;2023-05-16T04:55:52;20.65;;;8.70;;
75704;SDS011;70013;44.726;37.760;2023-05-16T04:56:54;20.98;;;9.15;;
75704;SDS011;70013;44.726;37.760;2023-05-16T04:57:55;13.35;;;6.18;;
75704;SDS011;70013;44.726;37.760;2023-05-16T04:58:56;19.40;;;9.20;;
75704;SDS011;70013;44.726;37.760;2023-05-16T04:59:58;10.20;;;3.05;;
75704;SDS011;70013;44.726;37.760;2023-05-16T05:00:59;13.57;;;3.70;;
75704;SDS011;70013;44.726;37.760;2023-05-16T05:02:01;15.35;;;4.28;;
75704;SDS011;70013;44.726;37.760;2023-05-16T05:03:02;13.02;;;4.07;;
75704;SDS011;70013;44.726;37.760;2023-05-16T05:04:04;10.23;;;3.40;;
75704;SDS011;70013;44.726;37.760;2023-05-16T05:05:05;9.38;;;3.03;;
75704;SDS011;70013;44.726;37.760;2023-05-16T05:06:08;16.05;;;2.90;;
75704;SDS011;70013;44.726;37.760;2023-05-16T05:07:09;7.10;;;2.53;;
75704;SDS011;70013;44.726;37.760;2023-05-16T05:08:11;11.52;;;2.67;;
75704;SDS011;70013;44.726;37.760;2023-05-16T05:09:12;8.27;;;2.58;;
75704;SDS011;70013;44.726;37.760;2023-05-16T05:10:13;13.43;;;3.08;;
75704;SDS011;70013;44.726;37.760;2023-05-16T05:11:15;10.52;;;2.45;;
75704;SDS011;70013;44.726;37.760;2023-05-16T05:12:17;5.18;;;2.30;;
75704;SDS011;70013;44.726;37.760;2023-05-16T05:13:18;15.88;;;2.88;;
75704;SDS011;70013;44.726;37.760;2023-05-16T05:14:20;8.20;;;2.72;;
75704;SDS011;70013;44.726;37.760;2023-05-16T05:15:21;14.38;;;3.65;;
75704;SDS011;70013;44.726;37.760;2023-05-16T05:16:22;15.88;;;3.33;;
75704;SDS011;70013;44.726;37.760;2023-05-16T05:17:24;10.07;;;3.10;;
75704;SDS011;70013;44.726;37.760;2023-05-16T05:18:25;9.98;;;3.30;;
75704;SDS011;70013;44.726;37.760;2023-05-16T05:19:27;10.30;;;4.13;;
75704;SDS011;70013;44.726;37.760;2023-05-16T05:20:28;10.02;;;3.60;;
75704;SDS011;70013;44.726;37.760;2023-05-16T05:21:30;11.15;;;3.55;;
75704;SDS011;70013;44.726;37.760;2023-05-16T05:22:32;12.73;;;3.25;;
75704;SDS011;70013;44.726;37.760;2023-05-16T05:23:40;13.55;;;3.92;;
75704;SDS011;70013;44.726;37.760;2023-05-16T05:24:42;14.30;;;3.10;;
75704;SDS011;70013;44.726;37.760;2023-05-16T05:25:43;9.25;;;3.53;;
75704;SDS011;70013;44.726;37.760;2023-05-16T05:26:45;10.15;;;3.40;;
75704;SDS011;70013;44.726;37.760;2023-05-16T05:27:47;11.30;;;4.05;;
75704;SDS011;70013;44.726;37.760;2023-05-16T05:28:48;14.32;;;4.10;;
75704;SDS011;70013;44.726;37.760;2023-05-16T05:29:50;10.88;;;3.63;;
75704;SDS011;70013;44.726;37.760;2023-05-16T05:30:51;14.77;;;4.00;;
75704;SDS011;70013;44.726;37.760;2023-05-16T05:31:53;10.80;;;3.80;;
75704;SDS011;70013;44.726;37.760;2023-05-16T05:32:54;5.45;;;2.78;;
75704;SDS011;70013;44.726;37.760;2023-05-16T05:33:56;9.23;;;3.25;;
75704;SDS011;70013;44.726;37.760;2023-05-16T05:34:57;11.70;;;3.20;;
75704;SDS011;70013;44.726;37.760;2023-05-16T05:35:58;13.63;;;3.00;;
75704;SDS011;70013;44.726;37.760;2023-05-16T05:37:00;11.18;;;2.80;;
75704;SDS011;70013;44.726;37.760;2023-05-16T05:38:01;8.52;;;2.67;;
75704;SDS011;70013;44.726;37.760;2023-05-16T05:39:03;11.15;;;2.70;;
75704;SDS011;70013;44.726;37.760;2023-05-16T05:40:04;12.50;;;3.20;;
75704;SDS011;70013;44.726;37.760;2023-05-16T05:41:07;15.85;;;2.92;;
75704;SDS011;70013;44.726;37.760;2023-05-16T05:42:09;8.50;;;2.45;;
75704;SDS011;70013;44.726;37.760;2023-05-16T05:43:11;8.18;;;2.35;;
75704;SDS011;70013;44.726;37.760;2023-05-16T05:44:12;5.50;;;2.00;;
75704;SDS011;70013;44.726;37.760;2023-05-16T05:45:14;6.43;;;2.65;;
75704;SDS011;70013;44.726;37.760;2023-05-16T05:46:16;7.07;;;2.47;;
75704;SDS011;70013;44.726;37.760;2023-05-16T05:47:17;7.78;;;2.30;;
75704;SDS011;70013;44.726;37.760;2023-05-16T05:48:18;9.75;;;3.35;;
75704;SDS011;70013;44.726;37.760;2023-05-16T05:49:20;5.70;;;2.42;;
75704;SDS011;70013;44.726;37.760;2023-05-16T05:50:22;6.63;;;2.50;;
75704;SDS011;70013;44.726;37.760;2023-05-16T05:51:24;5.68;;;2.30;;
75704;SDS011;70013;44.726;37.760;2023-05-16T05:52:25;7.28;;;2.40;;
75704;SDS011;70013;44.726;37.760;2023-05-16T05:53:28;5.80;;;2.30;;
75704;SDS011;70013;44.726;37.760;2023-05-16T05:54:33;10.73;;;2.38;;
75704;SDS011;70013;44.726;37.760;2023-05-16T05:55:35;5.65;;;2.30;;
75704;SDS011;70013;44.726;37.760;2023-05-16T05:56:36;10.70;;;2.55;;
75704;SDS011;70013;44.726;37.760;2023-05-16T05:57:37;8.68;;;2.20;;
75704;SDS011;70013;44.726;37.760;2023-05-16T05:58:40;9.35;;;2.78;;
75704;SDS011;70013;44.726;37.760;2023-05-16T05:59:41;9.27;;;2.58;;
75704;SDS011;70013;44.726;37.760;2023-05-16T06:00:44;11.35;;;2.63;;
75704;SDS011;70013;44.726;37.760;2023-05-16T06:01:45;6.63;;;2.92;;
75704;SDS011;70013;44.726;37.760;2023-05-16T06:02:46;7.88;;;2.35;;
75704;SDS011;70013;44.726;37.760;2023-05-16T06:03:48;6.22;;;2.17;;
75704;SDS011;70013;44.726;37.760;2023-05-16T06:04:50;4.40;;;2.17;;
75704;SDS011;70013;44.726;37.760;2023-05-16T06:05:51;10.93;;;2.70;;
75704;SDS011;70013;44.726;37.760;2023-05-16T06:06:52;6.18;;;2.28;;
75704;SDS011;70013;44.726;37.760;2023-05-16T06:07:54;8.65;;;2.63;;
75704;SDS011;70013;44.726;37.760;2023-05-16T06:08:55;9.82;;;2.65;;
75704;SDS011;70013;44.726;37.760;2023-05-16T06:09:57;8.45;;;2.30;;
75704;SDS011;70013;44.726;37.760;2023-05-16T06:10:59;5.72;;;2.40;;
75704;SDS011;70013;44.726;37.760;2023-05-16T06:12:01;6.45;;;2.60;;
75704;SDS011;70013;44.726;37.760;2023-05-16T06:13:03;5.88;;;2.40;;
75704;SDS011;70013;44.726;37.760;2023-05-16T06:14:05;7.20;;;2.65;;
75704;SDS011;70013;44.726;37.760;2023-05-16T06:15:08;5.45;;;2.20;;
75704;SDS011;70013;44.726;37.760;2023-05-16T06:16:10;8.82;;;2.35;;
75704;SDS011;70013;44.726;37.760;2023-05-16T06:17:12;8.05;;;2.40;;
75704;SDS011;70013;44.726;37.760;2023-05-16T06:18:13;7.47;;;2.20;;
75704;SDS011;70013;44.726;37.760;2023-05-16T06:19:15;7.53;;;2.25;;
75704;SDS011;70013;44.726;37.760;2023-05-16T06:20:16;4.95;;;2.10;;
75704;SDS011;70013;44.726;37.760;2023-05-16T06:21:18;6.43;;;2.40;;
75704;SDS011;70013;44.726;37.760;2023-05-16T06:22:19;10.23;;;2.10;;
75704;SDS011;70013;44.726;37.760;2023-05-16T06:23:26;5.30;;;1.95;;
75704;SDS011;70013;44.726;37.760;2023-05-16T06:24:27;10.43;;;2.42;;
75704;SDS011;70013;44.726;37.760;2023-05-16T06:25:29;6.85;;;2.22;;
75704;SDS011;70013;44.726;37.760;2023-05-16T06:26:32;6.97;;;2.30;;
75704;SDS011;70013;44.726;37.760;2023-05-16T06:27:33;5.97;;;2.55;;
75704;SDS011;70013;44.726;37.760;2023-05-16T06:28:35;6.25;;;2.10;;
75704;SDS011;70013;44.726;37.760;2023-05-16T06:29:36;13.65;;;7.88;;
75704;SDS011;70013;44.726;37.760;2023-05-16T06:30:37;7.35;;;2.97;;
75704;SDS011;70013;44.726;37.760;2023-05-16T06:31:39;6.97;;;2.55;;
75704;SDS011;70013;44.726;37.760;2023-05-16T06:32:40;5.82;;;2.03;;
75704;SDS011;70013;44.726;37.760;2023-05-16T06:33:41;3.55;;;1.80;;
75704;SDS011;70013;44.726;37.760;2023-05-16T06:34:43;5.65;;;2.08;;
75704;SDS011;70013;44.726;37.760;2023-05-16T06:35:44;4.90;;;2.00;;
75704;SDS011;70013;44.726;37.760;2023-05-16T06:36:48;4.10;;;1.88;;
75704;SDS011;70013;44.726;37.760;2023-05-16T06:37:49;8.77;;;2.35;;
75704;SDS011;70013;44.726;37.760;2023-05-16T06:38:51;5.57;;;2.20;;
75704;SDS011;70013;44.726;37.760;2023-05-16T06:39:52;7.75;;;2.50;;
75704;SDS011;70013;44.726;37.760;2023-05-16T06:40:54;8.50;;;2.45;;
75704;SDS011;70013;44.726;37.760;2023-05-16T06:41:55;7.32;;;2.20;;
75704;SDS011;70013;44.726;37.760;2023-05-16T06:42:56;6.75;;;2.00;;
75704;SDS011;70013;44.726;37.760;2023-05-16T06:43:58;4.78;;;1.90;;
75704;SDS011;70013;44.726;37.760;2023-05-16T06:44:59;7.25;;;2.10;;
75704;SDS011;70013;44.726;37.760;2023-05-16T06:46:01;8.88;;;2.10;;
75704;SDS011;70013;44.726;37.760;2023-05-16T06:47:03;5.97;;;2.22;;
75704;SDS011;70013;44.726;37.760;2023-05-16T06:48:06;10.73;;;2.20;;
75704;SDS011;70013;44.726;37.760;2023-05-16T06:49:07;6.90;;;2.33;;
75704;SDS011;70013;44.726;37.760;2023-05-16T06:50:09;7.30;;;2.35;;
75704;SDS011;70013;44.726;37.760;2023-05-16T06:51:11;6.72;;;2.00;;
75704;SDS011;70013;44.726;37.760;2023-05-16T06:52:12;4.90;;;1.75;;
75704;SDS011;70013;44.726;37.760;2023-05-16T06:53:13;6.43;;;1.90;;
75704;SDS011;70013;44.726;37.760;2023-05-16T06:54:15;6.95;;;2.30;;
75704;SDS011;70013;44.726;37.760;2023-05-16T06:55:16;9.68;;;2.20;;
75704;SDS011;70013;44.726;37.760;2023-05-16T06:56:17;5.22;;;1.98;;
75704;SDS011;70013;44.726;37.760;2023-05-16T06:57:19;9.20;;;2.50;;
75704;SDS011;70013;44.726;37.760;2023-05-16T06:58:20;5.68;;;2.05;;
75704;SDS011;70013;44.726;37.760;2023-05-16T06:59:21;6.72;;;2.20;;
75704;SDS011;70013;44.726;37.760;2023-05-16T07:00:23;7.05;;;2.30;;
75704;SDS011;70013;44.726;37.760;2023-05-16T07:01:25;7.97;;;2.25;;
75704;SDS011;70013;44.726;37.760;2023-05-16T07:02:26;8.60;;;1.98;;
75704;SDS011;70013;44.726;37.760;2023-05-16T07:03:28;5.68;;;2.08;;